sensor_id;sensor_type;location;lat;lon;timestamp;temperature;humidity
13322;DHT22;6730;46.248;6.930;2022-12-05T00:01:35;4.20;99.90
13322;DHT22;6730;46.248;6.930;2022-12-05T00:04:04;4.10;99.90
13322;DHT22;6730;46.248;6.930;2022-12-05T00:06:32;4.20;99.90
13322;DHT22;6730;46.248;6.930;2022-12-05T00:08:58;4.30;99.90
13322;DHT22;6730;46.248;6.930;2022-12-05T00:11:29;4.00;99.90
13322;DHT22;6730;46.248;6.930;2022-12-05T00:13:56;3.90;99.90
13322;DHT22;6730;46.248;6.930;2022-12-05T00:16:24;3.70;99.90
13322;DHT22;6730;46.248;6.930;2022-12-05T00:18:51;3.50;99.90
13322;DHT22;6730;46.248;6.930;2022-12-05T00:21:22;3.20;99.90
13322;DHT22;6730;46.248;6.930;2022-12-05T00:23:49;3.50;99.90
13322;DHT22;6730;46.248;6.930;2022-12-05T00:26:15;4.10;99.90
13322;DHT22;6730;46.248;6.930;2022-12-05T00:28:41;4.30;99.90
13322;DHT22;6730;46.248;6.930;2022-12-05T00:31:11;4.60;99.90
13322;DHT22;6730;46.248;6.930;2022-12-05T00:33:37;4.90;99.90
13322;DHT22;6730;46.248;6.930;2022-12-05T00:36:09;4.90;99.90
13322;DHT22;6730;46.248;6.930;2022-12-05T00:38:35;4.90;99.90
13322;DHT22;6730;46.248;6.930;2022-12-05T00:41:11;4.80;99.90
13322;DHT22;6730;46.248;6.930;2022-12-05T00:43:37;4.60;99.90
13322;DHT22;6730;46.248;6.930;2022-12-05T00:46:06;4.60;99.90
13322;DHT22;6730;46.248;6.930;2022-12-05T00:48:32;4.70;99.90
13322;DHT22;6730;46.248;6.930;2022-12-05T00:51:03;4.90;99.90
13322;DHT22;6730;46.248;6.930;2022-12-05T00:53:29;5.30;99.90
13322;DHT22;6730;46.248;6.930;2022-12-05T00:55:55;5.30;99.90
13322;DHT22;6730;46.248;6.930;2022-12-05T00:58:21;5.50;99.90
13322;DHT22;6730;46.248;6.930;2022-12-05T01:00:47;5.50;99.90
13322;DHT22;6730;46.248;6.930;2022-12-05T01:03:12;5.40;99.90
13322;DHT22;6730;46.248;6.930;2022-12-05T01:05:38;5.20;99.90
13322;DHT22;6730;46.248;6.930;2022-12-05T01:08:04;5.20;99.90
13322;DHT22;6730;46.248;6.930;2022-12-05T01:10:29;5.20;99.90
13322;DHT22;6730;46.248;6.930;2022-12-05T01:12:55;5.10;99.90
13322;DHT22;6730;46.248;6.930;2022-12-05T01:15:21;5.10;99.90
13322;DHT22;6730;46.248;6.930;2022-12-05T01:17:46;5.10;99.90
13322;DHT22;6730;46.248;6.930;2022-12-05T01:20:12;5.10;99.90
13322;DHT22;6730;46.248;6.930;2022-12-05T01:22:38;4.90;99.90
13322;DHT22;6730;46.248;6.930;2022-12-05T01:25:04;4.80;99.90
13322;DHT22;6730;46.248;6.930;2022-12-05T01:27:30;4.70;99.90
13322;DHT22;6730;46.248;6.930;2022-12-05T01:29:56;4.70;99.90
13322;DHT22;6730;46.248;6.930;2022-12-05T01:32:22;4.70;99.90
13322;DHT22;6730;46.248;6.930;2022-12-05T01:34:48;4.70;99.90
13322;DHT22;6730;46.248;6.930;2022-12-05T01:37:13;4.80;99.90
13322;DHT22;6730;46.248;6.930;2022-12-05T01:39:39;4.30;99.90
13322;DHT22;6730;46.248;6.930;2022-12-05T01:42:05;4.30;99.90
13322;DHT22;6730;46.248;6.930;2022-12-05T01:46:56;4.10;99.90
13322;DHT22;6730;46.248;6.930;2022-12-05T01:49:37;4.10;99.90
13322;DHT22;6730;46.248;6.930;2022-12-05T01:52:18;4.40;99.90
13322;DHT22;6730;46.248;6.930;2022-12-05T01:54:45;4.60;99.90
13322;DHT22;6730;46.248;6.930;2022-12-05T01:57:13;5.00;99.90
13322;DHT22;6730;46.248;6.930;2022-12-05T01:59:44;5.10;99.90
13322;DHT22;6730;46.248;6.930;2022-12-05T02:02:11;5.30;99.90
13322;DHT22;6730;46.248;6.930;2022-12-05T02:04:49;5.50;99.90
13322;DHT22;6730;46.248;6.930;2022-12-05T02:07:18;5.50;99.90
13322;DHT22;6730;46.248;6.930;2022-12-05T02:09:45;5.70;99.90
13322;DHT22;6730;46.248;6.930;2022-12-05T02:12:11;5.50;99.90
13322;DHT22;6730;46.248;6.930;2022-12-05T02:14:52;4.60;99.90
13322;DHT22;6730;46.248;6.930;2022-12-05T02:26:14;4.10;99.90
13322;DHT22;6730;46.248;6.930;2022-12-05T02:34:59;4.80;99.90
13322;DHT22;6730;46.248;6.930;2022-12-05T02:37:51;4.50;99.90
13322;DHT22;6730;46.248;6.930;2022-12-05T02:40:48;4.90;99.90
13322;DHT22;6730;46.248;6.930;2022-12-05T02:43:37;4.90;99.90
13322;DHT22;6730;46.248;6.930;2022-12-05T02:46:09;5.10;99.90
13322;DHT22;6730;46.248;6.930;2022-12-05T02:48:36;5.40;99.90
13322;DHT22;6730;46.248;6.930;2022-12-05T02:51:04;5.60;99.90
13322;DHT22;6730;46.248;6.930;2022-12-05T02:53:34;5.60;99.90
13322;DHT22;6730;46.248;6.930;2022-12-05T02:56:01;5.70;99.90
13322;DHT22;6730;46.248;6.930;2022-12-05T02:58:33;5.80;99.90
13322;DHT22;6730;46.248;6.930;2022-12-05T03:01:01;5.90;99.90
13322;DHT22;6730;46.248;6.930;2022-12-05T03:03:29;5.70;99.90
13322;DHT22;6730;46.248;6.930;2022-12-05T03:11:10;5.70;99.90
13322;DHT22;6730;46.248;6.930;2022-12-05T03:13:51;5.80;99.90
13322;DHT22;6730;46.248;6.930;2022-12-05T03:16:30;5.90;99.90
13322;DHT22;6730;46.248;6.930;2022-12-05T03:19:03;5.80;99.90
13322;DHT22;6730;46.248;6.930;2022-12-05T03:21:40;5.90;99.90
13322;DHT22;6730;46.248;6.930;2022-12-05T03:24:11;5.90;99.90
13322;DHT22;6730;46.248;6.930;2022-12-05T03:29:25;5.80;99.90
13322;DHT22;6730;46.248;6.930;2022-12-05T03:32:10;5.60;99.90
13322;DHT22;6730;46.248;6.930;2022-12-05T03:34:57;5.60;99.90
13322;DHT22;6730;46.248;6.930;2022-12-05T03:37:42;5.50;99.90
13322;DHT22;6730;46.248;6.930;2022-12-05T03:42:56;5.80;99.90
13322;DHT22;6730;46.248;6.930;2022-12-05T03:45:33;5.70;99.90
13322;DHT22;6730;46.248;6.930;2022-12-05T03:48:13;5.80;99.90
13322;DHT22;6730;46.248;6.930;2022-12-05T03:50:42;5.70;99.90
13322;DHT22;6730;46.248;6.930;2022-12-05T03:53:17;5.60;99.90
13322;DHT22;6730;46.248;6.930;2022-12-05T03:55:48;5.70;99.90
13322;DHT22;6730;46.248;6.930;2022-12-05T03:58:33;5.30;99.90
13322;DHT22;6730;46.248;6.930;2022-12-05T04:01:03;4.90;99.90
13322;DHT22;6730;46.248;6.930;2022-12-05T04:03:45;4.60;99.90
13322;DHT22;6730;46.248;6.930;2022-12-05T04:06:48;4.50;99.90
13322;DHT22;6730;46.248;6.930;2022-12-05T04:09:15;4.60;99.90
13322;DHT22;6730;46.248;6.930;2022-12-05T04:11:49;4.40;99.90
13322;DHT22;6730;46.248;6.930;2022-12-05T04:14:18;4.40;99.90
13322;DHT22;6730;46.248;6.930;2022-12-05T04:16:55;4.50;99.90
13322;DHT22;6730;46.248;6.930;2022-12-05T04:22:31;4.30;99.90
13322;DHT22;6730;46.248;6.930;2022-12-05T04:24:58;4.00;99.90
13322;DHT22;6730;46.248;6.930;2022-12-05T04:30:35;3.50;99.90
13322;DHT22;6730;46.248;6.930;2022-12-05T04:33:09;3.40;99.90
13322;DHT22;6730;46.248;6.930;2022-12-05T04:35:52;3.40;99.90
13322;DHT22;6730;46.248;6.930;2022-12-05T04:38:42;3.40;99.90
13322;DHT22;6730;46.248;6.930;2022-12-05T04:41:19;3.40;99.90
13322;DHT22;6730;46.248;6.930;2022-12-05T04:43:46;3.40;99.90
13322;DHT22;6730;46.248;6.930;2022-12-05T04:46:15;3.40;99.90
13322;DHT22;6730;46.248;6.930;2022-12-05T04:48:44;3.40;99.90
13322;DHT22;6730;46.248;6.930;2022-12-05T04:51:17;3.40;99.90
13322;DHT22;6730;46.248;6.930;2022-12-05T04:53:44;3.30;99.90
13322;DHT22;6730;46.248;6.930;2022-12-05T04:56:14;3.30;99.90
13322;DHT22;6730;46.248;6.930;2022-12-05T04:58:41;3.30;99.90
13322;DHT22;6730;46.248;6.930;2022-12-05T05:01:14;3.30;99.90
13322;DHT22;6730;46.248;6.930;2022-12-05T05:03:50;3.20;99.90
13322;DHT22;6730;46.248;6.930;2022-12-05T05:06:17;3.20;99.90
13322;DHT22;6730;46.248;6.930;2022-12-05T05:08:51;3.40;99.90
13322;DHT22;6730;46.248;6.930;2022-12-05T05:11:25;3.50;99.90
13322;DHT22;6730;46.248;6.930;2022-12-05T05:13:52;3.50;99.90
13322;DHT22;6730;46.248;6.930;2022-12-05T05:16:21;3.50;99.90
13322;DHT22;6730;46.248;6.930;2022-12-05T05:18:48;3.40;99.90
13322;DHT22;6730;46.248;6.930;2022-12-05T05:23:41;3.10;99.90
13322;DHT22;6730;46.248;6.930;2022-12-05T05:26:06;3.10;99.90
13322;DHT22;6730;46.248;6.930;2022-12-05T05:28:32;3.20;99.90
13322;DHT22;6730;46.248;6.930;2022-12-05T05:31:01;3.40;99.90
13322;DHT22;6730;46.248;6.930;2022-12-05T05:33:27;3.30;99.90
13322;DHT22;6730;46.248;6.930;2022-12-05T05:35:53;3.30;99.90
13322;DHT22;6730;46.248;6.930;2022-12-05T05:38:18;3.40;99.90
13322;DHT22;6730;46.248;6.930;2022-12-05T05:40:44;3.60;99.90
13322;DHT22;6730;46.248;6.930;2022-12-05T05:43:10;3.60;99.90
13322;DHT22;6730;46.248;6.930;2022-12-05T05:45:36;3.60;99.90
13322;DHT22;6730;46.248;6.930;2022-12-05T05:48:01;3.60;99.90
13322;DHT22;6730;46.248;6.930;2022-12-05T05:50:27;3.70;99.90
13322;DHT22;6730;46.248;6.930;2022-12-05T05:52:53;3.70;99.90
13322;DHT22;6730;46.248;6.930;2022-12-05T05:55:20;3.90;99.90
13322;DHT22;6730;46.248;6.930;2022-12-05T05:57:47;4.00;99.90
13322;DHT22;6730;46.248;6.930;2022-12-05T06:00:14;4.00;99.90
13322;DHT22;6730;46.248;6.930;2022-12-05T06:02:40;4.00;99.90
13322;DHT22;6730;46.248;6.930;2022-12-05T06:05:06;3.80;99.90
13322;DHT22;6730;46.248;6.930;2022-12-05T06:07:32;3.50;99.90
13322;DHT22;6730;46.248;6.930;2022-12-05T06:09:57;3.50;99.90
13322;DHT22;6730;46.248;6.930;2022-12-05T06:12:23;3.50;99.90
13322;DHT22;6730;46.248;6.930;2022-12-05T06:14:49;3.60;99.90
13322;DHT22;6730;46.248;6.930;2022-12-05T06:17:15;3.60;99.90
13322;DHT22;6730;46.248;6.930;2022-12-05T06:19:41;3.50;99.90
13322;DHT22;6730;46.248;6.930;2022-12-05T06:22:07;3.30;99.90
13322;DHT22;6730;46.248;6.930;2022-12-05T06:24:32;3.30;99.90
13322;DHT22;6730;46.248;6.930;2022-12-05T06:26:58;3.40;99.90
13322;DHT22;6730;46.248;6.930;2022-12-05T06:29:27;3.40;99.90
13322;DHT22;6730;46.248;6.930;2022-12-05T06:31:55;3.30;99.90
13322;DHT22;6730;46.248;6.930;2022-12-05T06:34:21;3.30;99.90
13322;DHT22;6730;46.248;6.930;2022-12-05T06:36:47;3.40;99.90
13322;DHT22;6730;46.248;6.930;2022-12-05T06:39:12;3.40;99.90
13322;DHT22;6730;46.248;6.930;2022-12-05T06:41:38;3.40;99.90
13322;DHT22;6730;46.248;6.930;2022-12-05T06:44:04;3.40;99.90
13322;DHT22;6730;46.248;6.930;2022-12-05T06:46:30;3.40;99.90
13322;DHT22;6730;46.248;6.930;2022-12-05T06:48:56;3.40;99.90
13322;DHT22;6730;46.248;6.930;2022-12-05T06:51:22;3.50;99.90
13322;DHT22;6730;46.248;6.930;2022-12-05T06:53:49;3.50;99.90
13322;DHT22;6730;46.248;6.930;2022-12-05T06:56:17;3.50;99.90
13322;DHT22;6730;46.248;6.930;2022-12-05T06:58:46;3.50;99.90
13322;DHT22;6730;46.248;6.930;2022-12-05T07:01:17;3.50;99.90
13322;DHT22;6730;46.248;6.930;2022-12-05T07:04:02;3.40;99.90
13322;DHT22;6730;46.248;6.930;2022-12-05T07:06:28;3.50;99.90
13322;DHT22;6730;46.248;6.930;2022-12-05T07:08:54;3.50;99.90
13322;DHT22;6730;46.248;6.930;2022-12-05T07:11:20;3.50;99.90
13322;DHT22;6730;46.248;6.930;2022-12-05T07:13:45;3.60;99.90
13322;DHT22;6730;46.248;6.930;2022-12-05T07:16:11;3.50;99.90
13322;DHT22;6730;46.248;6.930;2022-12-05T07:18:37;3.60;99.90
13322;DHT22;6730;46.248;6.930;2022-12-05T07:21:09;3.60;99.90
13322;DHT22;6730;46.248;6.930;2022-12-05T07:23:36;3.70;99.90
13322;DHT22;6730;46.248;6.930;2022-12-05T07:26:06;3.60;99.90
13322;DHT22;6730;46.248;6.930;2022-12-05T07:28:32;3.70;99.90
13322;DHT22;6730;46.248;6.930;2022-12-05T07:31:06;3.90;99.90
13322;DHT22;6730;46.248;6.930;2022-12-05T07:33:32;3.80;99.90
13322;DHT22;6730;46.248;6.930;2022-12-05T07:36:05;4.00;99.90
13322;DHT22;6730;46.248;6.930;2022-12-05T07:38:31;3.80;99.90
13322;DHT22;6730;46.248;6.930;2022-12-05T07:40:57;3.60;99.90
13322;DHT22;6730;46.248;6.930;2022-12-05T07:43:23;3.50;99.90
13322;DHT22;6730;46.248;6.930;2022-12-05T07:45:49;3.40;99.90
13322;DHT22;6730;46.248;6.930;2022-12-05T07:48:15;3.40;99.90
13322;DHT22;6730;46.248;6.930;2022-12-05T07:50:41;3.40;99.90
13322;DHT22;6730;46.248;6.930;2022-12-05T07:53:06;3.50;99.90
13322;DHT22;6730;46.248;6.930;2022-12-05T07:55:32;3.70;99.90
13322;DHT22;6730;46.248;6.930;2022-12-05T07:57:58;3.80;99.90
13322;DHT22;6730;46.248;6.930;2022-12-05T08:00:23;3.60;99.90
13322;DHT22;6730;46.248;6.930;2022-12-05T08:02:49;3.60;99.90
13322;DHT22;6730;46.248;6.930;2022-12-05T08:05:17;3.80;99.90
13322;DHT22;6730;46.248;6.930;2022-12-05T08:07:43;4.10;99.90
13322;DHT22;6730;46.248;6.930;2022-12-05T08:10:09;4.40;99.90
13322;DHT22;6730;46.248;6.930;2022-12-05T08:12:34;4.70;99.90
13322;DHT22;6730;46.248;6.930;2022-12-05T08:15:02;4.80;99.90
13322;DHT22;6730;46.248;6.930;2022-12-05T08:17:28;5.00;99.90
13322;DHT22;6730;46.248;6.930;2022-12-05T08:19:54;4.90;99.90
13322;DHT22;6730;46.248;6.930;2022-12-05T08:22:20;4.90;99.90
13322;DHT22;6730;46.248;6.930;2022-12-05T08:24:49;4.90;99.90
13322;DHT22;6730;46.248;6.930;2022-12-05T08:27:15;5.10;99.90
13322;DHT22;6730;46.248;6.930;2022-12-05T08:29:41;5.20;99.90
13322;DHT22;6730;46.248;6.930;2022-12-05T08:32:06;5.30;99.90
13322;DHT22;6730;46.248;6.930;2022-12-05T08:34:32;5.30;99.90
13322;DHT22;6730;46.248;6.930;2022-12-05T08:36:59;5.20;99.90
13322;DHT22;6730;46.248;6.930;2022-12-05T08:39:25;5.40;99.90
13322;DHT22;6730;46.248;6.930;2022-12-05T08:41:51;5.50;99.90
13322;DHT22;6730;46.248;6.930;2022-12-05T08:44:17;5.20;99.90
13322;DHT22;6730;46.248;6.930;2022-12-05T08:46:48;5.10;99.90
13322;DHT22;6730;46.248;6.930;2022-12-05T08:49:14;5.10;99.90
13322;DHT22;6730;46.248;6.930;2022-12-05T08:51:41;5.00;99.90
13322;DHT22;6730;46.248;6.930;2022-12-05T08:54:07;4.70;99.90
13322;DHT22;6730;46.248;6.930;2022-12-05T08:56:33;5.10;99.90
13322;DHT22;6730;46.248;6.930;2022-12-05T08:59:00;5.10;99.90
13322;DHT22;6730;46.248;6.930;2022-12-05T09:01:27;5.00;99.90
13322;DHT22;6730;46.248;6.930;2022-12-05T09:03:57;5.10;99.90
13322;DHT22;6730;46.248;6.930;2022-12-05T09:06:24;5.10;99.90
13322;DHT22;6730;46.248;6.930;2022-12-05T09:08:54;5.30;99.90
13322;DHT22;6730;46.248;6.930;2022-12-05T09:11:22;5.20;99.90
13322;DHT22;6730;46.248;6.930;2022-12-05T09:13:51;5.00;99.90
13322;DHT22;6730;46.248;6.930;2022-12-05T09:16:20;5.10;99.90
13322;DHT22;6730;46.248;6.930;2022-12-05T09:18:47;5.20;99.90
13322;DHT22;6730;46.248;6.930;2022-12-05T09:21:19;5.40;99.90
13322;DHT22;6730;46.248;6.930;2022-12-05T09:23:46;5.60;99.90
13322;DHT22;6730;46.248;6.930;2022-12-05T09:26:14;5.60;99.90
13322;DHT22;6730;46.248;6.930;2022-12-05T09:28:41;5.80;99.90
13322;DHT22;6730;46.248;6.930;2022-12-05T09:31:10;5.80;99.90
13322;DHT22;6730;46.248;6.930;2022-12-05T09:33:37;5.80;99.90
13322;DHT22;6730;46.248;6.930;2022-12-05T09:36:05;5.70;99.90
13322;DHT22;6730;46.248;6.930;2022-12-05T09:38:31;5.10;99.90
13322;DHT22;6730;46.248;6.930;2022-12-05T09:52:36;4.40;99.90
13322;DHT22;6730;46.248;6.930;2022-12-05T09:55:12;4.40;99.90
13322;DHT22;6730;46.248;6.930;2022-12-05T09:57:51;4.30;99.90
13322;DHT22;6730;46.248;6.930;2022-12-05T10:00:18;4.30;99.90
13322;DHT22;6730;46.248;6.930;2022-12-05T10:06:08;4.20;99.90
13322;DHT22;6730;46.248;6.930;2022-12-05T10:09:03;4.10;99.90
13322;DHT22;6730;46.248;6.930;2022-12-05T10:11:40;4.10;99.90
13322;DHT22;6730;46.248;6.930;2022-12-05T10:16:53;4.40;99.90
13322;DHT22;6730;46.248;6.930;2022-12-05T10:19:35;4.40;99.90
13322;DHT22;6730;46.248;6.930;2022-12-05T10:22:12;4.40;99.90
13322;DHT22;6730;46.248;6.930;2022-12-05T10:24:46;4.60;99.90
13322;DHT22;6730;46.248;6.930;2022-12-05T10:27:20;4.70;99.90
13322;DHT22;6730;46.248;6.930;2022-12-05T10:32:35;4.40;99.90
13322;DHT22;6730;46.248;6.930;2022-12-05T10:37:50;4.10;99.90
13322;DHT22;6730;46.248;6.930;2022-12-05T10:40:17;4.10;99.90
13322;DHT22;6730;46.248;6.930;2022-12-05T10:42:43;4.00;99.90
13322;DHT22;6730;46.248;6.930;2022-12-05T10:45:21;4.10;99.90
13322;DHT22;6730;46.248;6.930;2022-12-05T10:47:48;4.20;99.90
13322;DHT22;6730;46.248;6.930;2022-12-05T10:50:35;4.20;99.90
13322;DHT22;6730;46.248;6.930;2022-12-05T10:53:03;4.10;99.90
13322;DHT22;6730;46.248;6.930;2022-12-05T10:55:39;4.00;99.90
13322;DHT22;6730;46.248;6.930;2022-12-05T10:58:16;3.90;99.90
13322;DHT22;6730;46.248;6.930;2022-12-05T11:00:45;3.80;99.90
13322;DHT22;6730;46.248;6.930;2022-12-05T11:03:26;3.80;99.90
13322;DHT22;6730;46.248;6.930;2022-12-05T11:05:54;3.90;99.90
13322;DHT22;6730;46.248;6.930;2022-12-05T11:08:29;3.90;99.90
13322;DHT22;6730;46.248;6.930;2022-12-05T11:11:19;4.10;99.90
13322;DHT22;6730;46.248;6.930;2022-12-05T11:16:28;4.20;99.90
13322;DHT22;6730;46.248;6.930;2022-12-05T11:18:54;4.40;99.90
13322;DHT22;6730;46.248;6.930;2022-12-05T11:21:20;4.60;99.90
13322;DHT22;6730;46.248;6.930;2022-12-05T11:23:47;4.50;99.90
13322;DHT22;6730;46.248;6.930;2022-12-05T11:26:33;4.50;99.90
13322;DHT22;6730;46.248;6.930;2022-12-05T11:29:00;4.50;99.90
13322;DHT22;6730;46.248;6.930;2022-12-05T11:31:28;4.50;99.90
13322;DHT22;6730;46.248;6.930;2022-12-05T11:34:19;4.40;99.90
13322;DHT22;6730;46.248;6.930;2022-12-05T11:37:05;4.30;99.90
13322;DHT22;6730;46.248;6.930;2022-12-05T11:39:35;4.50;99.90
13322;DHT22;6730;46.248;6.930;2022-12-05T11:45:15;5.20;99.90
13322;DHT22;6730;46.248;6.930;2022-12-05T11:52:59;5.30;99.90
13322;DHT22;6730;46.248;6.930;2022-12-05T11:55:42;5.10;99.90
13322;DHT22;6730;46.248;6.930;2022-12-05T12:09:34;4.30;99.90
13322;DHT22;6730;46.248;6.930;2022-12-05T12:17:59;4.40;99.90
13322;DHT22;6730;46.248;6.930;2022-12-05T12:28:39;4.40;99.90
13322;DHT22;6730;46.248;6.930;2022-12-05T12:34:24;4.40;99.90
13322;DHT22;6730;46.248;6.930;2022-12-05T12:36:57;4.40;99.90
13322;DHT22;6730;46.248;6.930;2022-12-05T12:39:51;4.50;99.90
13322;DHT22;6730;46.248;6.930;2022-12-05T12:50:19;4.50;99.90
13322;DHT22;6730;46.248;6.930;2022-12-05T13:03:57;4.70;99.90
13322;DHT22;6730;46.248;6.930;2022-12-05T13:11:41;5.00;99.90
13322;DHT22;6730;46.248;6.930;2022-12-05T13:14:11;4.90;99.90
13322;DHT22;6730;46.248;6.930;2022-12-05T13:16:43;4.70;99.90
13322;DHT22;6730;46.248;6.930;2022-12-05T13:19:32;4.40;99.90
13322;DHT22;6730;46.248;6.930;2022-12-05T13:22:05;4.50;99.90
13322;DHT22;6730;46.248;6.930;2022-12-05T13:24:33;4.40;99.90
13322;DHT22;6730;46.248;6.930;2022-12-05T13:27:01;4.20;99.90
13322;DHT22;6730;46.248;6.930;2022-12-05T13:29:50;4.30;99.90
13322;DHT22;6730;46.248;6.930;2022-12-05T13:34:57;4.20;99.90
13322;DHT22;6730;46.248;6.930;2022-12-05T13:37:28;4.20;99.90
13322;DHT22;6730;46.248;6.930;2022-12-05T13:40:28;4.30;99.90
13322;DHT22;6730;46.248;6.930;2022-12-05T13:43:16;4.30;99.90
13322;DHT22;6730;46.248;6.930;2022-12-05T13:45:59;4.40;99.90
13322;DHT22;6730;46.248;6.930;2022-12-05T13:48:27;4.40;99.90
13322;DHT22;6730;46.248;6.930;2022-12-05T13:51:03;4.40;99.90
13322;DHT22;6730;46.248;6.930;2022-12-05T13:53:35;4.50;99.90
13322;DHT22;6730;46.248;6.930;2022-12-05T13:58:47;5.10;99.90
13322;DHT22;6730;46.248;6.930;2022-12-05T14:17:44;5.30;99.90
13322;DHT22;6730;46.248;6.930;2022-12-05T14:20:36;5.60;99.90
13322;DHT22;6730;46.248;6.930;2022-12-05T14:28:59;5.30;99.90
13322;DHT22;6730;46.248;6.930;2022-12-05T14:34:35;4.80;99.90
13322;DHT22;6730;46.248;6.930;2022-12-05T14:39:40;4.70;99.90
13322;DHT22;6730;46.248;6.930;2022-12-05T14:42:20;4.80;99.90
13322;DHT22;6730;46.248;6.930;2022-12-05T14:44:49;5.10;99.90
13322;DHT22;6730;46.248;6.930;2022-12-05T14:47:28;4.90;99.90
13322;DHT22;6730;46.248;6.930;2022-12-05T14:55:51;4.30;99.90
13322;DHT22;6730;46.248;6.930;2022-12-05T14:58:35;4.20;99.90
13322;DHT22;6730;46.248;6.930;2022-12-05T15:03:55;4.10;99.90
13322;DHT22;6730;46.248;6.930;2022-12-05T15:06:23;4.00;99.90
13322;DHT22;6730;46.248;6.930;2022-12-05T15:08:54;4.00;99.90
13322;DHT22;6730;46.248;6.930;2022-12-05T15:11:23;3.90;99.90
13322;DHT22;6730;46.248;6.930;2022-12-05T15:14:19;3.90;99.90
13322;DHT22;6730;46.248;6.930;2022-12-05T15:16:45;3.90;99.90
13322;DHT22;6730;46.248;6.930;2022-12-05T15:19:32;3.90;99.90
13322;DHT22;6730;46.248;6.930;2022-12-05T15:22:05;3.90;99.90
13322;DHT22;6730;46.248;6.930;2022-12-05T15:24:36;3.90;99.90
13322;DHT22;6730;46.248;6.930;2022-12-05T15:27:04;4.00;99.90
13322;DHT22;6730;46.248;6.930;2022-12-05T15:29:31;4.00;99.90
13322;DHT22;6730;46.248;6.930;2022-12-05T15:34:36;4.30;99.90
13322;DHT22;6730;46.248;6.930;2022-12-05T15:37:20;4.60;99.90
13322;DHT22;6730;46.248;6.930;2022-12-05T15:42:44;5.20;99.90
13322;DHT22;6730;46.248;6.930;2022-12-05T15:47:40;5.90;99.90
13322;DHT22;6730;46.248;6.930;2022-12-05T15:56:04;6.30;99.90
13322;DHT22;6730;46.248;6.930;2022-12-05T16:09:13;6.60;99.90
13322;DHT22;6730;46.248;6.930;2022-12-05T16:11:49;6.30;99.90
13322;DHT22;6730;46.248;6.930;2022-12-05T16:14:15;6.10;99.90
13322;DHT22;6730;46.248;6.930;2022-12-05T16:16:42;6.10;99.90
13322;DHT22;6730;46.248;6.930;2022-12-05T16:21:57;6.10;99.90
13322;DHT22;6730;46.248;6.930;2022-12-05T16:24:31;5.80;99.90
13322;DHT22;6730;46.248;6.930;2022-12-05T16:26:58;5.70;99.90
13322;DHT22;6730;46.248;6.930;2022-12-05T16:29:32;5.60;99.90
13322;DHT22;6730;46.248;6.930;2022-12-05T16:32:13;5.40;99.90
13322;DHT22;6730;46.248;6.930;2022-12-05T16:34:41;5.10;99.90
13322;DHT22;6730;46.248;6.930;2022-12-05T16:37:23;5.00;99.90
13322;DHT22;6730;46.248;6.930;2022-12-05T16:39:50;4.90;99.90
13322;DHT22;6730;46.248;6.930;2022-12-05T16:42:27;5.10;99.90
13322;DHT22;6730;46.248;6.930;2022-12-05T16:45:00;5.10;99.90
13322;DHT22;6730;46.248;6.930;2022-12-05T16:50:33;5.10;99.90
13322;DHT22;6730;46.248;6.930;2022-12-05T16:55:35;4.70;99.90
13322;DHT22;6730;46.248;6.930;2022-12-05T16:58:03;4.50;99.90
13322;DHT22;6730;46.248;6.930;2022-12-05T17:00:29;4.50;99.90
13322;DHT22;6730;46.248;6.930;2022-12-05T17:02:56;4.60;99.90
13322;DHT22;6730;46.248;6.930;2022-12-05T17:05:22;4.60;99.90
13322;DHT22;6730;46.248;6.930;2022-12-05T17:07:49;4.60;99.90
13322;DHT22;6730;46.248;6.930;2022-12-05T17:10:15;4.60;99.90
13322;DHT22;6730;46.248;6.930;2022-12-05T17:12:41;4.40;99.90
13322;DHT22;6730;46.248;6.930;2022-12-05T17:15:16;4.30;99.90
13322;DHT22;6730;46.248;6.930;2022-12-05T17:17:44;4.30;99.90
13322;DHT22;6730;46.248;6.930;2022-12-05T17:20:10;4.10;99.90
13322;DHT22;6730;46.248;6.930;2022-12-05T17:22:37;4.10;99.90
13322;DHT22;6730;46.248;6.930;2022-12-05T17:25:17;4.00;99.90
13322;DHT22;6730;46.248;6.930;2022-12-05T17:27:43;4.10;99.90
13322;DHT22;6730;46.248;6.930;2022-12-05T17:30:09;4.10;99.90
13322;DHT22;6730;46.248;6.930;2022-12-05T17:32:35;4.00;99.90
13322;DHT22;6730;46.248;6.930;2022-12-05T17:35:01;3.90;99.90
13322;DHT22;6730;46.248;6.930;2022-12-05T17:37:26;3.70;99.90
13322;DHT22;6730;46.248;6.930;2022-12-05T17:39:52;3.80;99.90
13322;DHT22;6730;46.248;6.930;2022-12-05T17:42:18;3.80;99.90
13322;DHT22;6730;46.248;6.930;2022-12-05T17:44:43;3.90;99.90
13322;DHT22;6730;46.248;6.930;2022-12-05T17:47:09;3.80;99.90
13322;DHT22;6730;46.248;6.930;2022-12-05T17:49:35;3.80;99.90
13322;DHT22;6730;46.248;6.930;2022-12-05T17:52:00;3.80;99.90
13322;DHT22;6730;46.248;6.930;2022-12-05T17:54:29;3.70;99.90
13322;DHT22;6730;46.248;6.930;2022-12-05T17:56:54;3.50;99.90
13322;DHT22;6730;46.248;6.930;2022-12-05T17:59:20;3.50;99.90
13322;DHT22;6730;46.248;6.930;2022-12-05T18:01:46;3.50;99.90
13322;DHT22;6730;46.248;6.930;2022-12-05T18:04:11;3.50;99.90
13322;DHT22;6730;46.248;6.930;2022-12-05T18:06:37;3.50;99.90
13322;DHT22;6730;46.248;6.930;2022-12-05T18:09:04;3.50;99.90
13322;DHT22;6730;46.248;6.930;2022-12-05T18:11:29;3.50;99.90
13322;DHT22;6730;46.248;6.930;2022-12-05T18:13:55;3.50;99.90
13322;DHT22;6730;46.248;6.930;2022-12-05T18:16:21;3.40;99.90
13322;DHT22;6730;46.248;6.930;2022-12-05T18:18:46;3.40;99.90
13322;DHT22;6730;46.248;6.930;2022-12-05T18:21:12;3.40;99.90
13322;DHT22;6730;46.248;6.930;2022-12-05T18:23:39;3.40;99.90
13322;DHT22;6730;46.248;6.930;2022-12-05T18:26:06;3.40;99.90
13322;DHT22;6730;46.248;6.930;2022-12-05T18:28:34;3.40;99.90
13322;DHT22;6730;46.248;6.930;2022-12-05T18:31:13;3.30;99.90
13322;DHT22;6730;46.248;6.930;2022-12-05T18:33:39;3.30;99.90
13322;DHT22;6730;46.248;6.930;2022-12-05T18:36:12;3.20;99.90
13322;DHT22;6730;46.248;6.930;2022-12-05T18:38:40;3.10;99.90
13322;DHT22;6730;46.248;6.930;2022-12-05T18:41:07;3.10;99.90
13322;DHT22;6730;46.248;6.930;2022-12-05T18:43:34;3.10;99.90
13322;DHT22;6730;46.248;6.930;2022-12-05T18:46:02;3.20;99.90
13322;DHT22;6730;46.248;6.930;2022-12-05T18:48:32;3.20;99.90
13322;DHT22;6730;46.248;6.930;2022-12-05T18:53:40;3.20;99.90
13322;DHT22;6730;46.248;6.930;2022-12-05T18:56:09;3.20;99.90
13322;DHT22;6730;46.248;6.930;2022-12-05T18:58:35;3.20;99.90
13322;DHT22;6730;46.248;6.930;2022-12-05T19:01:12;3.30;99.90
13322;DHT22;6730;46.248;6.930;2022-12-05T19:03:40;3.20;99.90
13322;DHT22;6730;46.248;6.930;2022-12-05T19:06:14;3.00;99.90
13322;DHT22;6730;46.248;6.930;2022-12-05T19:08:42;2.90;99.90
13322;DHT22;6730;46.248;6.930;2022-12-05T19:11:13;2.90;99.90
13322;DHT22;6730;46.248;6.930;2022-12-05T19:13:39;2.80;99.90
13322;DHT22;6730;46.248;6.930;2022-12-05T19:16:08;2.80;99.90
13322;DHT22;6730;46.248;6.930;2022-12-05T19:18:35;2.80;99.90
13322;DHT22;6730;46.248;6.930;2022-12-05T19:21:01;2.80;99.90
13322;DHT22;6730;46.248;6.930;2022-12-05T19:23:26;2.90;99.90
13322;DHT22;6730;46.248;6.930;2022-12-05T19:25:59;3.00;99.90
13322;DHT22;6730;46.248;6.930;2022-12-05T19:28:26;3.00;99.90
13322;DHT22;6730;46.248;6.930;2022-12-05T19:31:21;2.90;99.90
13322;DHT22;6730;46.248;6.930;2022-12-05T19:33:50;3.00;99.90
13322;DHT22;6730;46.248;6.930;2022-12-05T19:36:24;3.00;99.90
13322;DHT22;6730;46.248;6.930;2022-12-05T19:38:52;3.00;99.90
13322;DHT22;6730;46.248;6.930;2022-12-05T19:41:21;2.90;99.90
13322;DHT22;6730;46.248;6.930;2022-12-05T19:43:47;2.80;99.90